createdAt,value
2023-01-01T00:02:23.635Z,17.58
2023-01-01T00:04:50.353Z,16.25
2023-01-01T00:07:16.987Z,17.30
2023-01-01T00:10:02.321Z,16.88
2023-01-01T00:14:55.581Z,17.40
2023-01-01T00:17:22.328Z,16.65
2023-01-01T00:19:49.200Z,16.65
2023-01-01T00:22:52.646Z,16.70
2023-01-01T00:25:03.202Z,16.48
2023-01-01T00:27:30.208Z,16.65
2023-01-01T00:29:57.072Z,16.17
2023-01-01T00:32:24.002Z,17.45
2023-01-01T00:34:51.084Z,17.10
2023-01-01T00:37:18.221Z,16.48
2023-01-01T00:39:45.168Z,16.67
2023-01-01T00:42:11.800Z,17.33
2023-01-01T00:44:38.444Z,16.42
2023-01-01T00:47:07.765Z,15.73
2023-01-01T00:49:34.541Z,15.75
2023-01-01T00:52:01.225Z,17.08
2023-01-01T00:54:27.894Z,17.40
2023-01-01T00:56:55.581Z,17.02
2023-01-01T00:59:28.359Z,17.13
2023-01-01T01:01:55.640Z,17.80
2023-01-01T01:04:22.470Z,18.42
2023-01-01T01:06:49.091Z,17.80
2023-01-01T01:09:15.757Z,17.88
2023-01-01T01:11:42.495Z,17.92
2023-01-01T01:14:09.144Z,17.88
2023-01-01T01:16:35.875Z,17.98
2023-01-01T01:19:04.862Z,18.05
2023-01-01T01:21:33.988Z,17.80
2023-01-01T01:24:02.445Z,17.67
2023-01-01T01:26:31.479Z,17.50
2023-01-01T01:28:58.715Z,17.20
2023-01-01T01:31:28.552Z,17.83
2023-01-01T01:33:55.263Z,17.38
2023-01-01T01:36:22.206Z,17.42
2023-01-01T01:38:48.994Z,18.02
2023-01-01T01:41:27.971Z,17.73
2023-01-01T01:44:05.746Z,17.70
2023-01-01T01:46:36.766Z,18.50
2023-01-01T01:49:16.301Z,17.63
2023-01-01T01:51:44.210Z,18.65
2023-01-01T01:54:14.327Z,18.58
2023-01-01T01:56:52.111Z,18.50
2023-01-01T01:59:20.809Z,20.50
2023-01-01T02:01:47.527Z,17.67
2023-01-01T02:04:14.325Z,17.65
2023-01-01T02:06:41.319Z,17.42
2023-01-01T02:09:09.101Z,17.85
2023-01-01T02:11:35.850Z,17.80
2023-01-01T02:14:03.071Z,17.08
2023-01-01T02:16:47.379Z,17.42
2023-01-01T02:19:51.781Z,17.83
2023-01-01T02:22:43.865Z,17.45
2023-01-01T02:25:41.192Z,17.70
2023-01-01T02:28:30.714Z,17.98
2023-01-01T02:30:59.843Z,17.40
2023-01-01T02:33:27.422Z,18.33
2023-01-01T02:36:01.151Z,17.77
2023-01-01T02:38:37.210Z,17.42
2023-01-01T02:41:23.159Z,18.10
2023-01-01T02:43:49.820Z,17.80
2023-01-01T02:48:48.362Z,17.80
2023-01-01T02:51:24.918Z,17.70
2023-01-01T02:54:19.725Z,17.52
2023-01-01T02:57:17.239Z,18.27
2023-01-01T03:00:31.289Z,18.48
2023-01-01T03:03:23.129Z,16.80
2023-01-01T03:06:23.804Z,17.50
2023-01-01T03:08:59.867Z,17.10
2023-01-01T03:11:34.416Z,17.13
2023-01-01T03:14:12.535Z,17.38
2023-01-01T03:17:03.052Z,17.10
2023-01-01T03:19:35.719Z,17.20
2023-01-01T03:22:13.533Z,18.05
2023-01-01T03:25:26.845Z,18.27
2023-01-01T03:27:59.203Z,17.10
2023-01-01T03:30:26.749Z,17.25
2023-01-01T03:33:08.819Z,17.50
2023-01-01T03:35:55.694Z,17.50
2023-01-01T03:38:43.266Z,17.45
2023-01-01T03:41:24.334Z,17.75
2023-01-01T03:44:23.891Z,17.45
2023-01-01T03:46:50.897Z,17.48
2023-01-01T03:49:18.683Z,17.58
2023-01-01T03:51:48.310Z,17.05
2023-01-01T03:54:59.006Z,17.25
2023-01-01T03:57:31.945Z,17.25
2023-01-01T04:00:05.780Z,17.58
2023-01-01T04:02:49.794Z,15.75
2023-01-01T04:05:18.597Z,16.35
2023-01-01T04:10:17.257Z,15.57
2023-01-01T04:12:45.176Z,16.05
2023-01-01T04:15:11.947Z,15.60
2023-01-01T04:17:38.587Z,15.57
2023-01-01T04:20:05.776Z,15.40
2023-01-01T04:22:35.208Z,16.67
2023-01-01T04:25:02.255Z,16.25
2023-01-01T04:27:29.141Z,16.38
2023-01-01T04:29:55.836Z,17.00
2023-01-01T04:32:23.132Z,17.00
2023-01-01T04:34:49.788Z,17.05
2023-01-01T04:37:16.731Z,17.30
2023-01-01T04:39:43.560Z,17.05
2023-01-01T04:42:10.152Z,16.83
2023-01-01T04:44:36.759Z,17.50
2023-01-01T04:47:03.846Z,16.70
2023-01-01T04:49:30.513Z,16.88
2023-01-01T04:51:57.245Z,17.50
2023-01-01T04:54:23.890Z,17.00
2023-01-01T04:56:50.555Z,17.40
2023-01-01T04:59:17.176Z,16.77
2023-01-01T05:01:45.703Z,16.77
2023-01-01T05:04:16.529Z,17.33
2023-01-01T05:06:43.432Z,17.40
2023-01-01T05:09:11.420Z,16.83
2023-01-01T05:11:38.163Z,17.02
2023-01-01T05:14:05.638Z,16.60
2023-01-01T05:16:37.388Z,16.83
2023-01-01T05:19:04.917Z,17.00
2023-01-01T05:21:37.534Z,16.58
2023-01-01T05:24:09.861Z,16.42
2023-01-01T05:26:41.060Z,16.27
2023-01-01T05:29:15.642Z,16.40
2023-01-01T05:31:43.157Z,16.65
2023-01-01T05:34:09.908Z,17.35
2023-01-01T05:36:38.981Z,17.30
2023-01-01T05:39:11.899Z,16.92
2023-01-01T05:41:39.109Z,17.42
2023-01-01T05:44:08.716Z,17.23
2023-01-01T05:46:35.829Z,17.08
2023-01-01T05:49:02.590Z,16.52
2023-01-01T05:53:58.420Z,17.02
2023-01-01T05:56:25.789Z,16.90
2023-01-01T05:58:52.554Z,17.48
2023-01-01T06:01:23.408Z,17.60
2023-01-01T06:03:51.022Z,17.52
2023-01-01T06:06:24.022Z,16.50
2023-01-01T06:08:59.821Z,17.65
2023-01-01T06:11:27.331Z,16.10
2023-01-01T06:13:56.782Z,16.05
2023-01-01T06:16:25.348Z,16.08
2023-01-01T06:18:52.509Z,16.15
2023-01-01T06:21:22.067Z,16.90
2023-01-01T06:23:49.208Z,16.30
2023-01-01T06:26:19.209Z,16.42
2023-01-01T06:28:47.539Z,16.15
2023-01-01T06:31:16.939Z,15.90
2023-01-01T06:33:43.875Z,16.35
2023-01-01T06:36:12.481Z,17.17
2023-01-01T06:38:41.793Z,16.38
2023-01-01T06:41:12.611Z,15.82
2023-01-01T06:43:39.482Z,16.27
2023-01-01T06:46:19.660Z,16.80
2023-01-01T06:48:48.245Z,16.63
2023-01-01T06:51:26.734Z,15.80
2023-01-01T06:53:54.197Z,16.30
2023-01-01T06:56:21.495Z,17.15
2023-01-01T06:58:49.130Z,16.85
2023-01-01T07:01:18.665Z,16.17
2023-01-01T07:03:51.211Z,16.45
2023-01-01T07:06:17.980Z,16.77
2023-01-01T07:08:44.659Z,16.55
2023-01-01T07:11:11.332Z,16.05
2023-01-01T07:13:38.084Z,16.13
2023-01-01T07:16:12.387Z,15.98
2023-01-01T07:18:40.323Z,15.40
2023-01-01T07:21:28.280Z,15.85
2023-01-01T07:23:56.552Z,16.13
2023-01-01T07:26:24.899Z,16.25
2023-01-01T07:28:53.331Z,16.67
2023-01-01T07:31:21.517Z,17.02
2023-01-01T07:33:48.341Z,16.70
2023-01-01T07:36:16.618Z,16.95
2023-01-01T07:38:43.334Z,16.65
2023-01-01T07:41:10.135Z,17.30
2023-01-01T07:43:37.005Z,16.50
2023-01-01T07:46:04.521Z,18.08
2023-01-01T07:48:37.855Z,16.67
2023-01-01T07:51:08.270Z,19.13
2023-01-01T07:53:35.185Z,16.38
2023-01-01T07:56:02.128Z,15.35
2023-01-01T07:58:28.719Z,16.58
2023-01-01T08:00:55.335Z,16.88
2023-01-01T08:03:22.025Z,16.67
2023-01-01T08:05:48.790Z,17.25
2023-01-01T08:08:15.639Z,17.02
2023-01-01T08:10:42.250Z,17.40
2023-01-01T08:13:09.164Z,20.30
2023-01-01T08:15:36.016Z,20.13
2023-01-01T08:18:04.961Z,19.85
2023-01-01T08:20:32.977Z,19.60
2023-01-01T08:23:07.156Z,19.92
2023-01-01T08:25:35.366Z,18.30
2023-01-01T08:28:02.041Z,27.55
2023-01-01T08:30:28.780Z,27.58
2023-01-01T08:32:55.527Z,26.85
2023-01-01T08:35:22.143Z,17.83
2023-01-01T08:37:49.257Z,17.20
2023-01-01T08:40:15.883Z,17.00
2023-01-01T08:42:42.524Z,17.70
2023-01-01T08:45:10.717Z,17.63
2023-01-01T08:47:37.401Z,16.63
2023-01-01T08:50:04.892Z,16.95
2023-01-01T08:52:32.106Z,17.60
2023-01-01T08:54:58.869Z,27.60
2023-01-01T08:57:25.848Z,16.60
2023-01-01T08:59:52.521Z,17.08
2023-01-01T09:02:19.473Z,17.05
2023-01-01T09:04:46.228Z,16.65
2023-01-01T09:07:12.887Z,27.20
2023-01-01T09:09:39.792Z,27.23
2023-01-01T09:12:08.266Z,26.05
2023-01-01T09:14:35.102Z,27.25
2023-01-01T09:17:02.932Z,27.50
2023-01-01T09:19:29.967Z,25.30
2023-01-01T09:21:57.311Z,24.50
2023-01-01T09:24:24.578Z,26.58
2023-01-01T09:26:51.233Z,25.95
2023-01-01T09:29:18.543Z,27.23
2023-01-01T09:31:45.518Z,24.55
2023-01-01T09:34:12.597Z,24.63
2023-01-01T09:36:39.386Z,26.70
2023-01-01T09:39:06.386Z,25.65
2023-01-01T09:42:00.828Z,25.38
2023-01-01T09:44:36.013Z,25.13
2023-01-01T09:47:05.782Z,25.02
2023-01-01T09:49:39.919Z,27.05
2023-01-01T09:52:14.443Z,27.27
2023-01-01T09:54:52.195Z,27.02
2023-01-01T09:57:20.406Z,26.70
2023-01-01T09:59:47.333Z,26.95
2023-01-01T10:02:49.707Z,25.85
2023-01-01T10:05:32.243Z,27.70
2023-01-01T10:08:21.193Z,27.65
2023-01-01T10:11:02.736Z,27.02
2023-01-01T10:13:37.898Z,25.83
2023-01-01T10:16:23.885Z,24.58
2023-01-01T10:18:55.579Z,23.30
2023-01-01T10:21:27.308Z,22.85
2023-01-01T10:24:19.163Z,22.55
2023-01-01T10:26:48.258Z,22.05
2023-01-01T10:29:36.708Z,22.20
2023-01-01T10:32:18.190Z,23.85
2023-01-01T10:34:44.959Z,23.58
2023-01-01T10:37:15.248Z,22.23
2023-01-01T10:39:43.478Z,22.42
2023-01-01T10:42:14.712Z,22.40
2023-01-01T10:44:42.435Z,25.90
2023-01-01T10:47:29.796Z,26.13
2023-01-01T10:49:56.529Z,25.45
2023-01-01T10:52:35.960Z,25.20
2023-01-01T10:55:03.456Z,28.65
2023-01-01T10:57:40.617Z,28.63
2023-01-01T11:00:25.883Z,27.17
2023-01-01T11:03:18.157Z,27.52
2023-01-01T11:06:21.652Z,26.80
2023-01-01T11:08:50.755Z,27.40
2023-01-01T11:11:44.731Z,26.75
2023-01-01T11:14:37.932Z,27.02
2023-01-01T11:17:05.339Z,25.50
2023-01-01T11:19:47.095Z,23.15
2023-01-01T11:25:15.536Z,27.83
2023-01-01T11:27:42.280Z,25.73
2023-01-01T11:30:26.537Z,25.38
2023-01-01T11:33:00.657Z,27.48
2023-01-01T11:35:31.103Z,28.20
2023-01-01T11:37:59.244Z,27.50
2023-01-01T11:40:36.437Z,27.55
2023-01-01T11:43:05.868Z,29.50
2023-01-01T11:45:38.800Z,24.98
2023-01-01T11:48:17.895Z,25.77
2023-01-01T11:51:00.699Z,25.05
2023-01-01T11:53:31.552Z,26.13
2023-01-01T11:56:09.600Z,25.85
2023-01-01T11:58:36.534Z,25.60
2023-01-01T12:01:40.887Z,28.95
2023-01-01T12:04:31.357Z,24.60
2023-01-01T12:07:06.992Z,23.05
2023-01-01T12:09:38.958Z,25.38
2023-01-01T12:12:20.541Z,24.13
2023-01-01T12:14:52.902Z,23.30
2023-01-01T12:17:39.763Z,27.02
2023-01-01T12:20:14.244Z,22.35
2023-01-01T12:22:41.427Z,25.33
2023-01-01T12:25:14.707Z,24.30
2023-01-01T12:27:44.112Z,23.63
2023-01-01T12:30:16.559Z,23.98
2023-01-01T12:33:07.877Z,22.63
2023-01-01T12:35:59.258Z,23.50
2023-01-01T12:38:47.158Z,27.98
2023-01-01T12:41:19.858Z,27.60
2023-01-01T12:44:11.683Z,25.30
2023-01-01T12:46:53.084Z,27.45
2023-01-01T12:49:22.813Z,26.83
2023-01-01T12:52:29.997Z,23.60
2023-01-01T12:55:21.303Z,24.58
2023-01-01T12:57:54.781Z,25.23
2023-01-01T13:00:21.619Z,23.85
2023-01-01T13:02:55.148Z,23.05
2023-01-01T13:05:27.434Z,24.92
2023-01-01T13:08:00.125Z,23.55
2023-01-01T13:10:34.227Z,23.20
2023-01-01T13:13:02.715Z,27.70
2023-01-01T13:15:44.321Z,25.20
2023-01-01T13:18:14.268Z,25.27
2023-01-01T13:20:44.847Z,26.02
2023-01-01T13:23:34.524Z,25.20
2023-01-01T13:26:22.741Z,27.75
2023-01-01T13:28:58.520Z,25.25
2023-01-01T13:31:43.914Z,21.92
2023-01-01T13:34:35.093Z,21.88
2023-01-01T13:37:25.714Z,21.88
2023-01-01T13:40:04.497Z,22.30
2023-01-01T13:42:59.241Z,21.90
2023-01-01T13:49:01.635Z,22.45
2023-01-01T13:54:59.616Z,22.20
2023-01-01T13:58:00.348Z,23.15
2023-01-01T14:00:49.879Z,24.50
2023-01-01T14:03:18.730Z,25.10
2023-01-01T14:05:57.162Z,25.98
2023-01-01T14:08:28.514Z,25.88
2023-01-01T14:10:55.674Z,24.77
2023-01-01T14:13:32.419Z,24.48
2023-01-01T14:16:02.862Z,24.50
2023-01-01T14:18:38.195Z,24.80
2023-01-01T14:21:17.459Z,23.80
2023-01-01T14:23:51.101Z,23.13
2023-01-01T14:26:25.506Z,24.55
2023-01-01T14:28:57.239Z,24.67
2023-01-01T14:31:30.016Z,25.55
2023-01-01T14:33:57.224Z,28.13
2023-01-01T14:36:27.782Z,26.45
2023-01-01T14:39:00.745Z,26.23
2023-01-01T14:41:39.483Z,25.85
2023-01-01T14:44:18.676Z,25.85
2023-01-01T14:46:51.252Z,26.98
2023-01-01T14:49:26.362Z,28.35
2023-01-01T14:52:05.267Z,25.85
2023-01-01T14:54:37.769Z,24.92
2023-01-01T14:57:11.401Z,23.92
2023-01-01T14:59:47.261Z,24.35
2023-01-01T15:02:17.551Z,16.60
2023-01-01T15:04:44.558Z,16.27
2023-01-01T15:07:31.357Z,16.33
2023-01-01T15:10:01.074Z,16.15
2023-01-01T15:12:29.067Z,16.70
2023-01-01T15:14:57.907Z,16.83
2023-01-01T15:17:26.636Z,16.70
2023-01-01T15:20:19.641Z,16.05
2023-01-01T15:22:46.693Z,16.30
2023-01-01T15:25:15.857Z,17.58
2023-01-01T15:27:44.156Z,16.38
2023-01-01T15:30:30.363Z,16.08
2023-01-01T15:33:09.541Z,16.08
2023-01-01T15:35:39.043Z,16.17
2023-01-01T15:38:22.029Z,16.70
2023-01-01T15:40:53.289Z,16.65
2023-01-01T15:43:25.099Z,16.83
2023-01-01T15:46:21.185Z,16.55
2023-01-01T15:48:50.612Z,15.70
2023-01-01T15:51:18.657Z,15.65
2023-01-01T15:53:56.292Z,16.42
2023-01-01T15:56:26.373Z,16.88
2023-01-01T15:59:03.802Z,15.57
2023-01-01T16:01:36.884Z,15.20
2023-01-01T16:04:27.739Z,14.48
2023-01-01T16:06:57.491Z,15.40
2023-01-01T16:09:24.501Z,15.65
2023-01-01T16:11:56.908Z,16.40
2023-01-01T16:14:23.888Z,14.23
2023-01-01T16:16:56.854Z,15.40
2023-01-01T16:19:24.454Z,14.82
2023-01-01T16:21:51.173Z,14.07
2023-01-01T16:24:19.761Z,14.57
2023-01-01T16:26:47.414Z,15.63
2023-01-01T16:29:14.545Z,15.82
2023-01-01T16:31:41.894Z,16.30
2023-01-01T16:34:15.572Z,16.67
2023-01-01T16:36:44.310Z,15.57
2023-01-01T16:39:11.688Z,15.75
2023-01-01T16:41:42.002Z,16.05
2023-01-01T16:44:13.626Z,17.38
2023-01-01T16:46:40.552Z,17.30
2023-01-01T16:49:07.528Z,16.05
2023-01-01T16:51:35.032Z,16.23
2023-01-01T16:54:01.918Z,18.70
2023-01-01T16:56:29.758Z,16.52
2023-01-01T16:59:02.584Z,15.80
2023-01-01T17:01:30.126Z,17.15
2023-01-01T17:03:56.990Z,15.40
2023-01-01T17:06:23.687Z,15.68
2023-01-01T17:08:50.336Z,21.17
2023-01-01T17:11:18.518Z,17.42
2023-01-01T17:13:46.579Z,15.32
2023-01-01T17:16:21.392Z,16.60
2023-01-01T17:19:14.382Z,16.88
2023-01-01T17:21:39.495Z,18.77
2023-01-01T17:24:06.666Z,15.20
2023-01-01T17:26:33.326Z,15.93
2023-01-01T17:29:01.488Z,16.10
2023-01-01T17:31:28.976Z,15.55
2023-01-01T17:33:56.451Z,14.57
2023-01-01T17:36:23.766Z,14.73
2023-01-01T17:38:50.465Z,15.95
2023-01-01T17:41:17.942Z,18.60
2023-01-01T17:43:46.721Z,17.15
2023-01-01T17:46:23.563Z,15.88
2023-01-01T17:48:51.053Z,15.02
2023-01-01T17:51:18.698Z,14.43
2023-01-01T17:53:45.545Z,15.23
2023-01-01T17:56:15.133Z,15.25
2023-01-01T17:58:45.579Z,13.70
2023-01-01T18:01:21.848Z,11.82
2023-01-01T18:03:53.845Z,14.32
2023-01-01T18:06:21.141Z,18.02
2023-01-01T18:08:48.574Z,22.38
2023-01-01T18:11:15.250Z,23.55
2023-01-01T18:13:41.868Z,18.83
2023-01-01T18:16:09.812Z,13.73
2023-01-01T18:18:38.528Z,15.13
2023-01-01T18:21:14.114Z,21.50
2023-01-01T18:23:41.642Z,13.98
2023-01-01T18:26:10.422Z,16.30
2023-01-01T18:28:38.201Z,19.33
2023-01-01T18:31:16.883Z,18.88
2023-01-01T18:33:43.731Z,11.85
2023-01-01T18:36:13.277Z,12.45
2023-01-01T18:38:43.596Z,18.00
2023-01-01T18:41:20.588Z,23.30
2023-01-01T18:43:47.260Z,13.20
2023-01-01T18:46:13.955Z,9.13
2023-01-01T18:48:42.599Z,8.23
2023-01-01T18:51:25.807Z,7.85
2023-01-01T18:53:57.529Z,7.97
2023-01-01T18:56:24.663Z,7.15
2023-01-01T18:58:54.563Z,7.93
2023-01-01T19:01:25.060Z,7.82
2023-01-01T19:03:55.991Z,7.50
2023-01-01T19:06:27.387Z,8.10
2023-01-01T19:09:17.714Z,7.25
2023-01-01T19:11:50.694Z,7.47
2023-01-01T19:14:20.186Z,7.53
2023-01-01T19:16:50.198Z,7.55
2023-01-01T19:19:17.592Z,7.68
2023-01-01T19:21:51.823Z,6.97
2023-01-01T19:24:23.575Z,6.57
2023-01-01T19:26:58.612Z,8.02
2023-01-01T19:31:56.774Z,7.07
2023-01-01T19:34:24.655Z,5.60
2023-01-01T19:36:51.527Z,6.70
2023-01-01T19:39:19.162Z,5.60
2023-01-01T19:41:46.028Z,6.18
2023-01-01T19:44:12.680Z,6.18
2023-01-01T19:46:39.805Z,6.38
2023-01-01T19:49:06.490Z,6.07
2023-01-01T19:51:33.214Z,9.15
2023-01-01T19:53:59.848Z,6.47
2023-01-01T19:56:27.039Z,6.72
2023-01-01T19:58:53.745Z,6.15
2023-01-01T20:01:20.601Z,7.40
2023-01-01T20:03:56.792Z,6.85
2023-01-01T20:06:24.831Z,7.47
2023-01-01T20:08:51.782Z,7.05
2023-01-01T20:11:18.760Z,7.20
2023-01-01T20:13:45.403Z,8.52
2023-01-01T20:16:12.164Z,9.07
2023-01-01T20:18:38.821Z,8.27
2023-01-01T20:21:44.124Z,9.07
2023-01-01T20:24:10.932Z,7.38
2023-01-01T20:26:37.614Z,8.35
2023-01-01T20:29:19.327Z,7.18
2023-01-01T20:31:46.791Z,8.15
2023-01-01T20:34:13.508Z,8.43
2023-01-01T20:36:59.201Z,8.02
2023-01-01T20:39:26.278Z,9.35
2023-01-01T20:41:54.704Z,9.07
2023-01-01T20:44:21.675Z,8.95
2023-01-01T20:46:48.436Z,8.98
2023-01-01T20:49:17.144Z,8.63
2023-01-01T20:51:49.071Z,9.43
2023-01-01T20:54:16.595Z,8.60
2023-01-01T20:56:43.682Z,8.07
2023-01-01T20:59:34.024Z,8.55
2023-01-01T21:01:59.781Z,10.00
2023-01-01T21:04:26.677Z,8.20
2023-01-01T21:06:53.411Z,10.63
2023-01-01T21:09:20.136Z,8.68
2023-01-01T21:11:48.148Z,7.70
2023-01-01T21:14:14.822Z,7.63
2023-01-01T21:16:43.744Z,7.85
2023-01-01T21:19:11.154Z,6.82
2023-01-01T21:21:44.886Z,6.85
2023-01-01T21:24:35.037Z,7.07
2023-01-01T21:27:07.828Z,7.38
2023-01-01T21:29:35.831Z,6.47
2023-01-01T21:32:25.772Z,8.57
2023-01-01T21:34:55.187Z,7.25
2023-01-01T21:37:43.469Z,7.65
2023-01-01T21:40:35.589Z,7.72
2023-01-01T21:43:02.189Z,7.57
2023-01-01T21:45:33.985Z,7.68
2023-01-01T21:48:36.990Z,7.57
2023-01-01T21:51:22.612Z,8.40
2023-01-01T21:53:49.417Z,7.55
2023-01-01T21:56:29.346Z,6.63
2023-01-01T21:59:26.811Z,6.18
2023-01-01T22:02:05.940Z,7.10
2023-01-01T22:04:38.764Z,7.22
2023-01-01T22:10:18.542Z,8.73
2023-01-01T22:12:47.909Z,7.10
2023-01-01T22:15:28.589Z,7.53
2023-01-01T22:18:23.968Z,7.47
2023-01-01T22:20:53.586Z,8.00
2023-01-01T22:23:20.427Z,7.05
2023-01-01T22:25:47.687Z,6.80
2023-01-01T22:28:22.688Z,7.32
2023-01-01T22:30:53.850Z,8.20
2023-01-01T22:33:29.673Z,7.43
2023-01-01T22:35:56.950Z,6.72
2023-01-01T22:38:31.528Z,7.53
2023-01-01T22:40:58.692Z,7.68
2023-01-01T22:43:34.364Z,7.40
2023-01-01T22:46:15.805Z,8.20
2023-01-01T22:48:42.567Z,8.82
2023-01-01T22:51:18.197Z,8.43
2023-01-01T22:53:45.341Z,7.50
2023-01-01T22:56:12.132Z,8.82
2023-01-01T22:58:38.883Z,8.07
2023-01-01T23:01:06.433Z,9.05
2023-01-01T23:03:33.254Z,9.02
2023-01-01T23:06:00.363Z,8.73
2023-01-01T23:08:27.239Z,8.32
2023-01-01T23:10:54.261Z,9.07
2023-01-01T23:13:39.817Z,9.30
2023-01-01T23:16:06.485Z,9.13
2023-01-01T23:18:35.683Z,9.48
2023-01-01T23:21:08.429Z,8.57
2023-01-01T23:23:36.178Z,9.25
2023-01-01T23:26:03.613Z,9.00
2023-01-01T23:28:31.825Z,8.60
2023-01-01T23:31:00.892Z,8.68
2023-01-01T23:33:29.357Z,8.48
2023-01-01T23:35:56.900Z,8.60
2023-01-01T23:38:24.531Z,8.70
2023-01-01T23:40:51.164Z,8.77
2023-01-01T23:43:17.757Z,10.20
2023-01-01T23:45:45.112Z,8.75
2023-01-01T23:48:13.758Z,9.07
2023-01-01T23:50:40.675Z,10.00
2023-01-01T23:53:08.738Z,11.18
2023-01-01T23:55:35.390Z,9.63
2023-01-01T23:58:02.008Z,10.20
